Terminal Aerodrome Forecast
Issued by NWS Pueblo, CO

Home | Current Version | Previous Version | Text Only | Print | Product List | Glossary On
Versions: 1 2 3 4 5 6 7 8 9 10 11 12 13 14 15 16 17 18 19 20 21 22 23 24 25 26 27 28 29 30 31 32 33 34 35 36 37
000
FTUS45 KPUB 062339
TAFALS
TAF
KALS 062339Z 0700/0724 10012KT P6SM VCTS SCT080CB BKN130
      TEMPO 0700/0703 VRB15G30KT -TSRA BKN040CB
     FM070300 11006KT P6SM VCSH SCT060 BKN100
     FM070700 VRB04KT P6SM SCT020 BKN090
     FM071700 20008KT P6SM VCSH SCT050 BKN080=

USA.gov is the U.S. government's official web portal to all federal, state and local government web resources and services.